createdAt,value
2023-08-15T00:00:28.377Z,25.76
2023-08-15T00:02:55.726Z,25.80
2023-08-15T00:05:22.353Z,25.75
2023-08-15T00:07:49.647Z,25.84
2023-08-15T00:10:16.291Z,25.80
2023-08-15T00:12:42.853Z,25.90
2023-08-15T00:15:10.594Z,25.84
2023-08-15T00:17:37.198Z,25.74
2023-08-15T00:20:04.245Z,25.71
2023-08-15T00:22:30.751Z,25.70
2023-08-15T00:24:57.442Z,25.71
2023-08-15T00:27:23.969Z,25.77
2023-08-15T00:29:50.526Z,25.83
2023-08-15T00:32:17.040Z,25.82
2023-08-15T00:34:43.546Z,25.85
2023-08-15T00:37:10.084Z,25.83
2023-08-15T00:39:36.610Z,25.67
2023-08-15T00:42:03.213Z,25.61
2023-08-15T00:44:29.728Z,25.33
2023-08-15T00:46:56.431Z,25.12
2023-08-15T00:49:23.392Z,24.95
2023-08-15T00:51:51.314Z,24.99
2023-08-15T00:54:18.863Z,24.85
2023-08-15T00:56:45.513Z,24.67
2023-08-15T00:59:12.079Z,24.75
2023-08-15T01:01:38.719Z,24.55
2023-08-15T01:04:07.033Z,24.50
2023-08-15T01:06:33.519Z,24.42
2023-08-15T01:09:01.207Z,24.38
2023-08-15T01:11:35.985Z,24.33
2023-08-15T01:14:08.309Z,24.37
2023-08-15T01:16:38.755Z,24.05
2023-08-15T01:19:11.661Z,24.36
2023-08-15T01:21:43.329Z,24.00
2023-08-15T01:24:10.850Z,23.62
2023-08-15T01:26:37.436Z,23.72
2023-08-15T01:29:04.628Z,23.78
2023-08-15T01:31:47.342Z,23.81
2023-08-15T01:34:19.809Z,23.93
2023-08-15T01:36:51.493Z,23.93
2023-08-15T01:39:24.241Z,23.59
2023-08-15T01:41:53.912Z,23.53
2023-08-15T01:44:21.593Z,23.71
2023-08-15T01:46:48.304Z,23.57
2023-08-15T01:49:15.531Z,23.44
2023-08-15T01:51:42.095Z,23.37
2023-08-15T01:54:08.679Z,23.45
2023-08-15T01:56:35.375Z,23.62
2023-08-15T01:59:02.356Z,23.81
2023-08-15T02:01:28.944Z,23.57
2023-08-15T02:03:55.600Z,23.45
2023-08-15T02:06:22.126Z,23.43
2023-08-15T02:08:48.676Z,23.26
2023-08-15T02:11:15.250Z,23.14
2023-08-15T02:13:41.789Z,23.33
2023-08-15T02:16:08.302Z,23.33
2023-08-15T02:18:34.999Z,23.29
2023-08-15T02:21:01.491Z,23.39
2023-08-15T02:23:28.257Z,23.23
2023-08-15T02:25:54.835Z,23.30
2023-08-15T02:28:21.417Z,23.27
2023-08-15T02:30:47.967Z,23.27
2023-08-15T02:33:14.571Z,23.14
2023-08-15T02:35:43.104Z,23.28
2023-08-15T02:38:09.793Z,23.51
2023-08-15T02:40:36.558Z,23.54
2023-08-15T02:43:03.740Z,23.33
2023-08-15T02:45:30.982Z,23.30
2023-08-15T02:47:57.689Z,23.15
2023-08-15T02:50:24.248Z,23.00
2023-08-15T02:52:50.800Z,22.82
2023-08-15T02:55:17.451Z,22.78
2023-08-15T02:57:44.136Z,23.00
2023-08-15T03:00:11.114Z,23.02
2023-08-15T03:02:37.887Z,23.14
2023-08-15T03:05:05.008Z,23.05
2023-08-15T03:07:31.516Z,22.76
2023-08-15T03:09:58.089Z,22.56
2023-08-15T03:12:24.602Z,22.35
2023-08-15T03:14:51.238Z,22.32
2023-08-15T03:17:20.411Z,22.21
2023-08-15T03:19:47.287Z,22.38
2023-08-15T03:22:13.803Z,22.10
2023-08-15T03:24:40.449Z,22.02
2023-08-15T03:27:07.438Z,22.03
2023-08-15T03:29:35.508Z,22.22
2023-08-15T03:32:02.563Z,22.47
2023-08-15T03:34:29.116Z,22.48
2023-08-15T03:36:57.194Z,22.36
2023-08-15T03:39:23.834Z,22.32
2023-08-15T03:41:50.379Z,22.27
2023-08-15T03:44:16.924Z,22.19
2023-08-15T03:46:43.542Z,22.34
2023-08-15T03:49:10.148Z,22.45
2023-08-15T03:51:46.522Z,22.33
2023-08-15T03:54:14.313Z,22.41
2023-08-15T03:56:41.020Z,22.66
2023-08-15T03:59:07.904Z,22.58
2023-08-15T04:01:34.526Z,22.46
2023-08-15T04:04:01.250Z,22.52
2023-08-15T04:06:27.864Z,22.58
2023-08-15T04:08:54.440Z,22.31
2023-08-15T04:11:20.998Z,22.30
2023-08-15T04:13:47.858Z,22.52
2023-08-15T04:16:16.132Z,22.24
2023-08-15T04:18:42.733Z,22.32
2023-08-15T04:21:11.356Z,22.44
2023-08-15T04:23:37.994Z,22.48
2023-08-15T04:26:04.590Z,22.52
2023-08-15T04:28:31.157Z,22.70
2023-08-15T04:30:57.735Z,22.56
2023-08-15T04:33:24.298Z,22.54
2023-08-15T04:35:50.852Z,22.33
2023-08-15T04:38:17.432Z,22.27
2023-08-15T04:40:45.139Z,22.16
2023-08-15T04:43:12.243Z,22.14
2023-08-15T04:45:45.354Z,22.23
2023-08-15T04:48:13.628Z,22.21
2023-08-15T04:50:41.535Z,22.34
2023-08-15T04:53:08.419Z,22.38
2023-08-15T04:55:35.554Z,22.50
2023-08-15T04:58:02.402Z,22.65
2023-08-15T05:00:30.873Z,22.58
2023-08-15T05:02:59.052Z,22.49
2023-08-15T05:05:26.061Z,22.26
2023-08-15T05:07:52.680Z,22.13
2023-08-15T05:10:19.343Z,22.31
2023-08-15T05:12:45.852Z,22.20
2023-08-15T05:15:13.158Z,22.12
2023-08-15T05:17:39.815Z,22.08
2023-08-15T05:20:07.069Z,22.16
2023-08-15T05:22:33.723Z,22.24
2023-08-15T05:25:00.521Z,22.39
2023-08-15T05:27:28.178Z,22.14
2023-08-15T05:29:54.740Z,22.13
2023-08-15T05:32:21.280Z,21.98
2023-08-15T05:34:47.852Z,21.97
2023-08-15T05:37:14.718Z,22.09
2023-08-15T05:39:41.276Z,22.15
2023-08-15T05:42:07.940Z,22.18
2023-08-15T05:44:34.545Z,22.16
2023-08-15T05:47:01.119Z,22.13
2023-08-15T05:49:27.692Z,22.29
2023-08-15T05:51:55.190Z,22.54
2023-08-15T05:54:22.551Z,22.30
2023-08-15T05:56:49.118Z,22.38
2023-08-15T05:59:15.999Z,22.29
2023-08-15T06:01:42.711Z,22.37
2023-08-15T06:04:09.327Z,22.51
2023-08-15T06:06:35.972Z,22.64
2023-08-15T06:09:02.519Z,22.72
2023-08-15T06:11:29.124Z,22.82
2023-08-15T06:13:55.692Z,22.81
2023-08-15T06:16:22.477Z,22.87
2023-08-15T06:18:49.046Z,22.77
2023-08-15T06:21:15.960Z,22.82
2023-08-15T06:23:42.534Z,22.89
2023-08-15T06:26:09.131Z,22.92
2023-08-15T06:28:35.687Z,22.53
2023-08-15T06:31:02.259Z,22.39
2023-08-15T06:33:29.126Z,22.35
2023-08-15T06:35:55.724Z,22.60
2023-08-15T06:38:22.341Z,22.88
2023-08-15T06:40:49.842Z,22.70
2023-08-15T06:43:16.549Z,21.98
2023-08-15T06:45:43.628Z,21.71
2023-08-15T06:48:10.189Z,21.99
2023-08-15T06:50:36.801Z,22.06
2023-08-15T06:53:04.272Z,22.22
2023-08-15T06:55:30.841Z,22.46
2023-08-15T06:57:58.048Z,22.49
2023-08-15T07:00:24.781Z,22.47
2023-08-15T07:02:51.592Z,22.80
2023-08-15T07:05:18.488Z,22.39
2023-08-15T07:07:45.076Z,22.70
2023-08-15T07:10:12.009Z,22.83
2023-08-15T07:12:38.760Z,22.63
2023-08-15T07:15:05.780Z,22.70
2023-08-15T07:17:32.689Z,22.81
2023-08-15T07:19:59.525Z,22.83
2023-08-15T07:22:26.167Z,22.91
2023-08-15T07:24:52.926Z,23.04
2023-08-15T07:27:19.515Z,22.88
2023-08-15T07:29:46.091Z,23.13
2023-08-15T07:32:13.799Z,23.34
2023-08-15T07:34:40.718Z,23.01
2023-08-15T07:37:07.350Z,22.82
2023-08-15T07:39:34.145Z,23.05
2023-08-15T07:42:00.753Z,23.33
2023-08-15T07:44:28.663Z,23.46
2023-08-15T07:46:55.354Z,23.59
2023-08-15T07:49:21.958Z,23.66
2023-08-15T07:51:48.600Z,23.42
2023-08-15T07:54:15.190Z,23.02
2023-08-15T07:56:41.814Z,23.08
2023-08-15T07:59:08.344Z,23.19
2023-08-15T08:01:34.931Z,23.33
2023-08-15T08:04:02.052Z,23.07
2023-08-15T08:08:58.845Z,23.22
2023-08-15T08:11:25.515Z,23.19
2023-08-15T08:13:52.957Z,23.50
2023-08-15T08:16:19.608Z,23.84
2023-08-15T08:18:46.198Z,23.94
2023-08-15T08:21:12.743Z,24.18
2023-08-15T08:23:39.503Z,24.11
2023-08-15T08:26:06.194Z,24.28
2023-08-15T08:28:32.945Z,24.34
2023-08-15T08:30:59.848Z,24.45
2023-08-15T08:33:26.787Z,24.36
2023-08-15T08:35:53.493Z,24.42
2023-08-15T08:38:20.809Z,24.33
2023-08-15T08:40:48.741Z,24.18
2023-08-15T08:43:16.833Z,24.19
2023-08-15T08:45:50.388Z,24.14
2023-08-15T08:48:18.509Z,24.26
2023-08-15T08:50:46.748Z,24.34
2023-08-15T08:53:13.397Z,24.68
2023-08-15T08:55:41.347Z,24.88
2023-08-15T08:58:11.571Z,24.22
2023-08-15T09:00:40.244Z,24.44
2023-08-15T09:03:07.164Z,24.59
2023-08-15T09:05:34.023Z,24.36
2023-08-15T09:08:01.765Z,24.41
2023-08-15T09:10:29.187Z,24.60
2023-08-15T09:13:00.709Z,24.73
2023-08-15T09:15:27.985Z,24.31
2023-08-15T09:18:00.416Z,24.53
2023-08-15T09:20:27.786Z,24.28
2023-08-15T09:22:58.266Z,24.72
2023-08-15T09:25:27.783Z,25.13
2023-08-15T09:27:57.124Z,25.22
2023-08-15T09:30:23.716Z,25.37
2023-08-15T09:32:50.522Z,25.56
2023-08-15T09:35:19.607Z,25.72
2023-08-15T09:37:52.151Z,25.18
2023-08-15T09:40:28.216Z,25.28
2023-08-15T09:42:55.666Z,25.30
2023-08-15T09:45:22.608Z,25.42
2023-08-15T09:47:49.310Z,25.21
2023-08-15T09:50:17.465Z,25.15
2023-08-15T09:52:49.436Z,25.35
2023-08-15T09:55:18.828Z,25.24
2023-08-15T09:57:46.430Z,25.09
2023-08-15T10:00:14.531Z,25.14
2023-08-15T10:02:51.000Z,25.06
2023-08-15T10:05:22.485Z,24.89
2023-08-15T10:07:50.769Z,24.90
2023-08-15T10:10:18.495Z,25.01
2023-08-15T10:12:46.850Z,25.33
2023-08-15T10:15:15.838Z,25.59
2023-08-15T10:17:42.833Z,25.67
2023-08-15T10:20:13.380Z,25.47
2023-08-15T10:22:43.316Z,25.57
2023-08-15T10:25:25.156Z,25.68
2023-08-15T10:27:54.324Z,25.68
2023-08-15T10:30:37.052Z,25.64
2023-08-15T10:33:25.423Z,25.65
2023-08-15T10:35:57.850Z,25.76
2023-08-15T10:38:42.091Z,25.86
2023-08-15T10:41:15.138Z,26.19
2023-08-15T10:43:48.375Z,26.51
2023-08-15T10:46:17.497Z,26.25
2023-08-15T10:51:29.407Z,26.46
2023-08-15T10:53:57.834Z,26.65
2023-08-15T10:56:33.274Z,26.67
2023-08-15T10:59:05.371Z,26.59
2023-08-15T11:01:33.225Z,26.48
2023-08-15T11:04:00.600Z,26.62
2023-08-15T11:06:27.348Z,26.61
2023-08-15T11:08:57.210Z,26.34
2023-08-15T11:11:24.243Z,26.35
2023-08-15T11:13:53.642Z,26.59
2023-08-15T11:16:23.001Z,26.66
2023-08-15T11:18:50.340Z,26.62
2023-08-15T11:21:18.313Z,26.56
2023-08-15T11:23:47.427Z,26.69
2023-08-15T11:26:15.586Z,26.90
2023-08-15T11:28:42.309Z,27.00
2023-08-15T11:31:21.997Z,27.03
2023-08-15T11:33:54.965Z,27.22
2023-08-15T11:36:22.706Z,27.16
2023-08-15T11:38:49.379Z,27.25
2023-08-15T11:41:16.288Z,27.52
2023-08-15T11:43:42.974Z,27.77
2023-08-15T11:46:09.831Z,28.04
2023-08-15T11:48:37.201Z,28.27
2023-08-15T11:51:05.074Z,28.35
2023-08-15T11:53:31.647Z,28.44
2023-08-15T11:55:58.280Z,28.38
2023-08-15T11:58:32.305Z,28.34
2023-08-15T12:01:07.143Z,28.38
2023-08-15T12:03:37.852Z,28.53
2023-08-15T12:06:09.999Z,28.66
2023-08-15T12:08:37.113Z,28.83
2023-08-15T12:11:09.457Z,29.05
2023-08-15T12:13:38.536Z,29.16
2023-08-15T12:16:06.719Z,29.25
2023-08-15T12:18:34.224Z,29.38
2023-08-15T12:21:02.245Z,29.44
2023-08-15T12:23:29.572Z,29.53
2023-08-15T12:25:56.738Z,29.63
2023-08-15T12:28:23.680Z,29.59
2023-08-15T12:30:50.884Z,29.67
2023-08-15T12:33:27.457Z,29.78
2023-08-15T12:36:04.552Z,29.97
2023-08-15T12:38:31.108Z,30.06
2023-08-15T12:40:57.626Z,30.15
2023-08-15T12:43:24.413Z,30.16
2023-08-15T12:45:51.190Z,30.06
2023-08-15T12:48:17.932Z,30.11
2023-08-15T12:50:44.623Z,30.28
2023-08-15T12:53:11.270Z,30.35
2023-08-15T12:55:37.934Z,30.38
2023-08-15T12:58:05.073Z,30.17
2023-08-15T13:00:31.976Z,30.24
2023-08-15T13:02:59.025Z,30.35
2023-08-15T13:05:25.896Z,30.39
2023-08-15T13:07:52.961Z,30.48
2023-08-15T13:10:19.542Z,30.68
2023-08-15T13:12:47.206Z,30.83
2023-08-15T13:15:13.890Z,30.96
2023-08-15T13:17:42.275Z,30.70
2023-08-15T13:20:12.174Z,30.79
2023-08-15T13:22:38.805Z,30.96
2023-08-15T13:25:05.709Z,31.05
2023-08-15T13:27:32.242Z,30.96
2023-08-15T13:29:58.809Z,30.82
2023-08-15T13:32:25.466Z,30.73
2023-08-15T13:34:51.947Z,30.77
2023-08-15T13:37:18.528Z,30.82
2023-08-15T13:39:45.471Z,30.92
2023-08-15T13:42:23.057Z,30.87
2023-08-15T13:44:53.641Z,30.93
2023-08-15T13:47:20.669Z,30.91
2023-08-15T13:49:47.320Z,30.79
2023-08-15T13:52:13.893Z,30.36
2023-08-15T13:54:40.419Z,30.31
2023-08-15T13:57:07.213Z,30.35
2023-08-15T13:59:34.018Z,30.03
2023-08-15T14:02:00.637Z,30.05
2023-08-15T14:04:27.323Z,30.27
2023-08-15T14:06:57.027Z,30.31
2023-08-15T14:09:23.568Z,30.15
2023-08-15T14:11:50.129Z,30.53
2023-08-15T14:14:17.271Z,30.43
2023-08-15T14:16:43.907Z,30.57
2023-08-15T14:19:13.971Z,30.79
2023-08-15T14:21:40.562Z,30.45
2023-08-15T14:24:07.388Z,30.58
2023-08-15T14:26:34.082Z,30.53
2023-08-15T14:29:00.615Z,30.47
2023-08-15T14:31:27.727Z,30.43
2023-08-15T14:33:54.281Z,30.52
2023-08-15T14:36:20.899Z,30.50
2023-08-15T14:38:47.507Z,30.12
2023-08-15T14:41:14.076Z,30.31
2023-08-15T14:43:40.616Z,30.41
2023-08-15T14:46:07.194Z,30.16
2023-08-15T14:48:33.775Z,30.14
2023-08-15T14:51:00.323Z,30.02
2023-08-15T14:53:26.906Z,30.13
2023-08-15T14:55:53.423Z,29.99
2023-08-15T14:58:19.969Z,30.17
2023-08-15T15:00:47.830Z,30.25
2023-08-15T15:03:14.445Z,30.38
2023-08-15T15:05:41.150Z,30.19
2023-08-15T15:08:08.673Z,30.22
2023-08-15T15:10:36.776Z,30.29
2023-08-15T15:13:03.644Z,30.49
2023-08-15T15:15:45.940Z,30.34
2023-08-15T15:18:17.428Z,30.46
2023-08-15T15:20:44.035Z,30.54
2023-08-15T15:23:10.561Z,30.30
2023-08-15T15:25:37.092Z,30.24
2023-08-15T15:28:03.833Z,30.50
2023-08-15T15:30:30.363Z,30.67
2023-08-15T15:32:57.416Z,30.84
2023-08-15T15:35:24.077Z,31.03
2023-08-15T15:37:50.587Z,31.32
2023-08-15T15:40:17.170Z,31.71
2023-08-15T15:42:43.741Z,32.45
2023-08-15T15:45:10.529Z,32.88
2023-08-15T15:47:37.202Z,32.34
2023-08-15T15:50:03.825Z,31.68
2023-08-15T15:52:30.406Z,31.45
2023-08-15T15:54:57.003Z,31.63
2023-08-15T15:57:23.718Z,31.63
2023-08-15T15:59:50.759Z,31.63
2023-08-15T16:02:17.404Z,31.77
2023-08-15T16:04:47.615Z,31.78
2023-08-15T16:07:18.310Z,31.61
2023-08-15T16:09:45.921Z,31.30
2023-08-15T16:12:12.462Z,31.31
2023-08-15T16:14:39.002Z,31.37
2023-08-15T16:17:05.564Z,31.66
2023-08-15T16:19:32.076Z,31.74
2023-08-15T16:21:58.731Z,31.76
2023-08-15T16:24:25.286Z,31.50
2023-08-15T16:26:52.173Z,31.49
2023-08-15T16:29:18.708Z,31.49
2023-08-15T16:31:45.364Z,31.47
2023-08-15T16:34:11.914Z,31.44
2023-08-15T16:36:38.454Z,31.03
2023-08-15T16:39:05.983Z,30.89
2023-08-15T16:41:32.855Z,30.80
2023-08-15T16:43:59.535Z,30.80
2023-08-15T16:46:26.258Z,31.05
2023-08-15T16:48:53.256Z,30.90
2023-08-15T16:51:19.845Z,30.88
2023-08-15T16:53:46.431Z,30.85
2023-08-15T16:56:13.069Z,30.81
2023-08-15T16:58:39.624Z,30.74
2023-08-15T17:01:06.409Z,30.64
2023-08-15T17:03:33.094Z,30.70
2023-08-15T17:05:59.859Z,31.35
2023-08-15T17:08:26.387Z,31.23
2023-08-15T17:10:52.912Z,31.59
2023-08-15T17:13:19.668Z,31.64
2023-08-15T17:15:46.822Z,31.83
2023-08-15T17:18:13.381Z,31.45
2023-08-15T17:20:39.954Z,31.19
2023-08-15T17:23:06.518Z,31.72
2023-08-15T17:25:33.229Z,32.36
2023-08-15T17:27:59.772Z,32.44
2023-08-15T17:30:26.554Z,32.55
2023-08-15T17:32:54.210Z,32.37
2023-08-15T17:35:20.874Z,32.35
2023-08-15T17:37:48.832Z,31.59
2023-08-15T17:40:15.655Z,31.67
2023-08-15T17:42:42.234Z,31.88
2023-08-15T17:45:09.388Z,31.53
2023-08-15T17:47:36.046Z,31.64
2023-08-15T17:50:03.023Z,31.10
2023-08-15T17:52:29.562Z,30.91
2023-08-15T17:54:56.120Z,30.54
2023-08-15T17:57:22.717Z,30.50
2023-08-15T17:59:49.235Z,30.42
2023-08-15T18:02:15.766Z,30.25
2023-08-15T18:04:42.334Z,30.29
2023-08-15T18:07:08.986Z,30.38
2023-08-15T18:09:35.529Z,30.22
2023-08-15T18:12:02.774Z,30.17
2023-08-15T18:14:30.645Z,30.08
2023-08-15T18:16:57.363Z,29.89
2023-08-15T18:19:24.334Z,29.98
2023-08-15T18:21:50.920Z,29.88
2023-08-15T18:24:18.384Z,29.83
2023-08-15T18:26:45.742Z,29.75
2023-08-15T18:29:12.333Z,29.84
2023-08-15T18:31:38.911Z,29.59
2023-08-15T18:34:05.753Z,29.54
2023-08-15T18:36:32.229Z,29.46
2023-08-15T18:38:59.552Z,29.34
2023-08-15T18:41:26.168Z,29.29
2023-08-15T18:43:52.778Z,29.31
2023-08-15T18:46:19.406Z,29.24
2023-08-15T18:48:46.830Z,29.18
2023-08-15T18:51:13.709Z,29.14
2023-08-15T18:53:41.861Z,29.15
2023-08-15T18:56:08.486Z,29.12
2023-08-15T18:58:35.045Z,29.10
2023-08-15T19:01:02.029Z,29.01
2023-08-15T19:03:28.862Z,28.83
2023-08-15T19:05:57.840Z,28.79
2023-08-15T19:08:24.336Z,28.64
2023-08-15T19:10:50.898Z,28.42
2023-08-15T19:13:22.437Z,28.34
2023-08-15T19:15:49.863Z,28.32
2023-08-15T19:18:16.729Z,28.14
2023-08-15T19:20:43.597Z,28.20
2023-08-15T19:23:10.139Z,28.15
2023-08-15T19:25:36.979Z,28.00
2023-08-15T19:28:03.671Z,28.07
2023-08-15T19:30:30.266Z,27.98
2023-08-15T19:32:56.932Z,27.98
2023-08-15T19:35:23.567Z,28.02
2023-08-15T19:37:50.792Z,27.79
2023-08-15T19:40:17.389Z,27.55
2023-08-15T19:42:46.343Z,27.49
2023-08-15T19:45:14.545Z,27.41
2023-08-15T19:47:41.633Z,27.40
2023-08-15T19:50:09.098Z,27.46
2023-08-15T19:52:36.393Z,27.46
2023-08-15T19:55:06.148Z,27.27
2023-08-15T19:57:33.576Z,27.28
2023-08-15T20:00:00.667Z,27.21
2023-08-15T20:02:27.528Z,27.12
2023-08-15T20:04:54.426Z,27.15
2023-08-15T20:07:21.154Z,27.25
2023-08-15T20:09:59.411Z,27.09
2023-08-15T20:12:34.779Z,27.09
2023-08-15T20:15:01.281Z,26.97
2023-08-15T20:17:28.264Z,26.95
2023-08-15T20:19:55.924Z,26.86
2023-08-15T20:22:23.508Z,26.75
2023-08-15T20:24:50.422Z,26.72
2023-08-15T20:27:17.008Z,26.64
2023-08-15T20:29:43.782Z,26.77
2023-08-15T20:32:10.815Z,26.63
2023-08-15T20:34:37.974Z,26.72
2023-08-15T20:37:04.718Z,26.75
2023-08-15T20:39:31.302Z,26.64
2023-08-15T20:41:57.812Z,26.57
2023-08-15T20:44:24.443Z,26.60
2023-08-15T20:46:51.053Z,26.54
2023-08-15T20:49:17.710Z,26.48
2023-08-15T20:51:44.378Z,26.55
2023-08-15T20:54:11.868Z,26.44
2023-08-15T20:56:38.732Z,26.41
2023-08-15T20:59:05.309Z,26.28
2023-08-15T21:01:31.919Z,26.32
2023-08-15T21:03:58.655Z,26.40
2023-08-15T21:06:26.417Z,26.28
2023-08-15T21:08:53.164Z,26.15
2023-08-15T21:11:20.187Z,26.02
2023-08-15T21:13:46.947Z,26.12
2023-08-15T21:16:13.634Z,26.09
2023-08-15T21:18:40.158Z,26.06
2023-08-15T21:21:08.672Z,26.08
2023-08-15T21:23:35.696Z,26.04
2023-08-15T21:26:02.640Z,25.90
2023-08-15T21:28:29.224Z,25.89
2023-08-15T21:30:56.519Z,25.86
2023-08-15T21:33:23.251Z,25.78
2023-08-15T21:35:52.385Z,25.69
2023-08-15T21:38:20.227Z,25.84
2023-08-15T21:40:50.634Z,25.69
2023-08-15T21:43:17.685Z,25.70
2023-08-15T21:45:44.470Z,25.84
2023-08-15T21:48:11.567Z,25.74
2023-08-15T21:50:38.395Z,25.70
2023-08-15T21:53:05.906Z,25.77
2023-08-15T21:55:33.095Z,25.69
2023-08-15T21:57:59.800Z,25.67
2023-08-15T22:00:27.935Z,25.59
2023-08-15T22:02:57.984Z,25.46
2023-08-15T22:05:25.993Z,25.28
2023-08-15T22:07:53.587Z,25.44
2023-08-15T22:10:21.551Z,25.42
2023-08-15T22:12:50.099Z,25.28
2023-08-15T22:15:18.402Z,25.22
2023-08-15T22:17:50.349Z,25.20
2023-08-15T22:20:21.479Z,25.15
2023-08-15T22:22:48.433Z,25.13
2023-08-15T22:25:17.617Z,25.32
2023-08-15T22:27:46.057Z,25.12
2023-08-15T22:30:13.868Z,24.96
2023-08-15T22:32:40.797Z,24.91
2023-08-15T22:35:08.109Z,24.95
2023-08-15T22:37:34.818Z,24.73
2023-08-15T22:40:04.352Z,24.73
2023-08-15T22:42:31.945Z,24.75
2023-08-15T22:44:58.551Z,24.62
2023-08-15T22:47:25.386Z,24.60
2023-08-15T22:49:52.130Z,24.66
2023-08-15T22:52:18.706Z,24.64
2023-08-15T22:54:45.334Z,24.65
2023-08-15T22:57:11.886Z,24.53
2023-08-15T22:59:38.420Z,24.68
2023-08-15T23:02:05.034Z,24.76
2023-08-15T23:04:31.719Z,24.75
2023-08-15T23:06:58.268Z,24.76
2023-08-15T23:09:24.803Z,24.65
2023-08-15T23:11:51.348Z,24.62
2023-08-15T23:14:17.857Z,24.54
2023-08-15T23:16:44.604Z,24.62
2023-08-15T23:19:11.364Z,24.47
2023-08-15T23:21:37.916Z,24.65
2023-08-15T23:24:06.184Z,24.53
2023-08-15T23:26:32.778Z,24.72
2023-08-15T23:28:59.486Z,24.40
2023-08-15T23:31:33.804Z,24.13
2023-08-15T23:34:03.502Z,24.41
2023-08-15T23:36:30.270Z,24.32
2023-08-15T23:38:58.271Z,24.32
2023-08-15T23:41:26.630Z,24.10
2023-08-15T23:43:56.367Z,24.07
2023-08-15T23:46:24.424Z,24.02
2023-08-15T23:48:53.944Z,24.10
2023-08-15T23:51:20.497Z,24.06
2023-08-15T23:53:48.639Z,23.98
2023-08-15T23:56:18.392Z,24.02
2023-08-15T23:58:46.213Z,23.93
